Time;durP1;ratioP1;P1;durP2;ratioP2;P2;SDS_P1;SDS_P2;PMS_P1;PMS_P2;Temp;Humidity;BMP_temperature;BMP_pressure;BME280_temperature;BME280_humidity;BME280_pressure;Samples;Min_cycle;Max_cycle;Signal;HPM_P1;HPM_P2
2022/08/30 00:01:33;;;;;;;0.00;0.00;;;17.30;99.90;;;;;;5033362;28;20220;-67
2022/08/30 00:04:01;;;;;;;0.00;0.00;;;17.20;99.90;;;;;;5035208;28;20211;-68
2022/08/30 00:06:30;;;;;;;0.00;0.00;;;17.10;99.90;;;;;;5049833;28;20200;-67
2022/08/30 00:08:58;;;;;;;0.00;0.00;;;17.10;99.90;;;;;;5018706;28;20310;-67
2022/08/30 00:11:28;;;;;;;0.00;0.00;;;17.00;99.90;;;;;;5027639;28;20549;-68
2022/08/30 00:13:56;;;;;;;0.00;0.00;;;17.00;99.90;;;;;;5027649;28;20196;-67
2022/08/30 00:16:25;;;;;;;0.00;0.00;;;17.00;99.90;;;;;;5026118;28;20207;-67
2022/08/30 00:18:52;;;;;;;0.00;0.00;;;17.00;99.90;;;;;;5029784;28;20214;-67
2022/08/30 00:21:19;;;;;;;0.00;0.00;;;16.90;99.90;;;;;;5021061;28;20205;-67
2022/08/30 00:23:47;;;;;;;0.00;0.00;;;16.90;99.90;;;;;;5024415;28;20632;-67
2022/08/30 00:26:14;;;;;;;0.00;0.00;;;16.90;99.90;;;;;;5026819;28;20675;-69
2022/08/30 00:28:41;;;;;;;0.00;0.00;;;16.80;99.90;;;;;;5023103;28;20235;-69
2022/08/30 00:31:09;;;;;;;0.00;0.00;;;16.80;99.90;;;;;;5016361;28;20584;-68
2022/08/30 00:33:36;;;;;;;0.00;0.00;;;16.80;99.90;;;;;;5026320;28;20184;-70
2022/08/30 00:36:04;;;;;;;0.00;0.00;;;16.80;99.90;;;;;;5020871;28;20212;-69
2022/08/30 00:38:30;;;;;;;0.00;0.00;;;16.70;99.90;;;;;;5019081;28;20204;-69
2022/08/30 00:41:00;;;;;;;0.00;0.00;;;16.80;99.90;;;;;;5023567;28;20203;-70
2022/08/30 00:43:32;;;;;;;0.00;0.00;;;16.70;99.90;;;;;;5019309;28;20284;-70
2022/08/30 00:46:03;;;;;;;0.00;0.00;;;16.80;99.90;;;;;;5013233;28;20314;-69
2022/08/30 00:48:30;;;;;;;0.00;0.00;;;16.80;99.90;;;;;;5020139;28;21048;-69
2022/08/30 00:51:01;;;;;;;0.00;0.00;;;16.80;99.90;;;;;;5024384;28;20213;-69
2022/08/30 00:53:31;;;;;;;0.00;0.00;;;16.90;99.90;;;;;;5021574;28;20204;-69
2022/08/30 00:56:01;;;;;;;0.00;0.00;;;17.00;99.90;;;;;;5036533;28;20230;-69
2022/08/30 00:58:33;;;;;;;0.00;0.00;;;17.00;99.90;;;;;;5019149;28;20207;-69
2022/08/30 01:01:01;;;;;;;0.00;0.00;;;17.00;99.90;;;;;;5021479;28;20211;-67
2022/08/30 01:03:30;;;;;;;0.00;0.00;;;17.00;99.90;;;;;;5024066;28;20211;-70
2022/08/30 01:05:58;;;;;;;0.00;0.00;;;17.00;99.90;;;;;;5028037;28;20223;-70
2022/08/30 01:08:26;;;;;;;0.00;0.00;;;17.00;99.90;;;;;;5026933;28;20204;-69
2022/08/30 01:10:54;;;;;;;0.00;0.00;;;17.00;99.90;;;;;;5034221;28;20205;-68
2022/08/30 01:13:25;;;;;;;0.00;0.00;;;17.00;99.90;;;;;;5019387;28;20192;-68
2022/08/30 01:15:52;;;;;;;0.00;0.00;;;17.00;99.90;;;;;;5037028;28;20243;-68
2022/08/30 01:18:19;;;;;;;0.00;0.00;;;17.00;99.90;;;;;;5021879;28;20184;-66
2022/08/30 01:20:51;;;;;;;0.00;0.00;;;16.90;99.90;;;;;;5018080;28;20738;-68
2022/08/30 01:23:21;;;;;;;0.00;0.00;;;16.90;99.90;;;;;;5015827;28;20250;-68
2022/08/30 01:25:50;;;;;;;0.00;0.00;;;17.00;99.90;;;;;;5026455;28;20242;-67
2022/08/30 01:28:21;;;;;;;0.00;0.00;;;17.00;99.90;;;;;;5015866;28;20284;-67
2022/08/30 01:30:48;;;;;;;0.00;0.00;;;16.90;99.90;;;;;;5033448;28;20196;-68
2022/08/30 01:33:15;;;;;;;0.00;0.00;;;16.90;99.90;;;;;;5020664;28;20200;-68
2022/08/30 01:35:47;;;;;;;0.00;0.00;;;16.80;99.90;;;;;;5022849;28;20217;-67
2022/08/30 01:38:15;;;;;;;0.00;0.00;;;16.80;99.90;;;;;;5024011;28;20295;-67
2022/08/30 01:40:44;;;;;;;0.00;0.00;;;16.70;99.90;;;;;;5022525;28;20267;-67
2022/08/30 01:43:12;;;;;;;0.00;0.00;;;16.60;99.90;;;;;;5023994;28;20643;-67
2022/08/30 01:45:39;;;;;;;0.00;0.00;;;16.60;99.90;;;;;;5022565;28;20228;-67
2022/08/30 01:48:06;;;;;;;0.00;0.00;;;16.50;99.90;;;;;;5027575;28;20211;-68
2022/08/30 01:50:33;;;;;;;0.00;0.00;;;16.50;99.90;;;;;;5019539;28;20199;-68
2022/08/30 01:53:00;;;;;;;0.00;0.00;;;16.50;99.90;;;;;;5028841;28;20200;-67
2022/08/30 01:55:28;;;;;;;0.00;0.00;;;16.40;99.90;;;;;;5014781;28;20223;-67
2022/08/30 01:57:56;;;;;;;0.00;0.00;;;16.40;99.90;;;;;;5016631;28;20204;-68
2022/08/30 02:00:23;;;;;;;0.00;0.00;;;;;;;;;;5019696;28;20236;-67
2022/08/30 02:02:51;;;;;;;0.00;0.00;;;;;;;;;;5019749;28;20216;-68
2022/08/30 02:05:18;;;;;;;0.00;0.00;;;16.30;99.90;;;;;;5027681;28;20271;-67
2022/08/30 02:07:46;;;;;;;0.00;0.00;;;;;;;;;;5026269;28;20204;-67
2022/08/30 02:10:14;;;;;;;0.00;0.00;;;;;;;;;;5037186;28;20228;-68
2022/08/30 02:12:42;;;;;;;0.00;0.00;;;;;;;;;;5018423;28;20214;-67
2022/08/30 02:15:11;;;;;;;0.00;0.00;;;;;;;;;;5018158;28;20235;-67
2022/08/30 02:17:39;;;;;;;0.00;0.00;;;;;;;;;;5019092;28;20255;-67
2022/08/30 02:20:06;;;;;;;0.00;0.00;;;;;;;;;;5017904;28;20271;-67
2022/08/30 02:22:33;;;;;;;0.00;0.00;;;16.20;99.90;;;;;;5020058;28;20291;-67
2022/08/30 02:25:00;;;;;;;0.00;0.00;;;16.00;99.90;;;;;;5020447;28;20231;-67
2022/08/30 02:27:28;;;;;;;0.00;0.00;;;16.00;99.90;;;;;;5024464;28;20208;-69
2022/08/30 02:29:55;;;;;;;0.00;0.00;;;16.00;99.90;;;;;;5037407;28;20310;-70
2022/08/30 02:32:23;;;;;;;0.00;0.00;;;15.90;99.90;;;;;;5018602;28;20669;-69
2022/08/30 02:34:50;;;;;;;0.00;0.00;;;15.90;99.90;;;;;;5019715;28;20223;-69
2022/08/30 02:37:19;;;;;;;0.00;0.00;;;15.90;99.90;;;;;;5016522;28;20587;-69
2022/08/30 02:39:46;;;;;;;0.00;0.00;;;15.90;99.90;;;;;;5021003;28;20200;-70
2022/08/30 02:42:13;;;;;;;0.00;0.00;;;16.00;99.90;;;;;;5021395;28;20228;-69
2022/08/30 02:44:40;;;;;;;0.10;0.10;;;15.90;99.90;;;;;;5036301;28;20220;-70
2022/08/30 02:47:07;;;;;;;0.00;0.00;;;15.90;99.90;;;;;;5027255;28;20203;-69
2022/08/30 02:49:36;;;;;;;0.00;0.00;;;15.90;99.90;;;;;;5026214;28;20317;-69
2022/08/30 02:52:05;;;;;;;0.00;0.00;;;15.90;99.90;;;;;;5028659;28;20747;-69
2022/08/30 02:54:32;;;;;;;0.00;0.00;;;15.80;99.90;;;;;;5026713;28;20379;-69
2022/08/30 02:57:03;;;;;;;0.00;0.00;;;15.80;99.90;;;;;;5020762;28;20580;-69
2022/08/30 02:59:31;;;;;;;0.00;0.00;;;;;;;;;;5022344;28;20195;-69
2022/08/30 03:01:59;;;;;;;0.10;0.10;;;;;;;;;;5022177;28;20307;-69
2022/08/30 03:04:26;;;;;;;0.00;0.00;;;;;;;;;;5029447;28;20216;-69
2022/08/30 03:06:55;;;;;;;0.00;0.00;;;;;;;;;;5024989;28;20203;-69
2022/08/30 03:09:22;;;;;;;0.00;0.00;;;;;;;;;;5027280;28;20242;-69
2022/08/30 03:11:49;;;;;;;0.00;0.00;;;;;;;;;;5026461;28;20281;-69
2022/08/30 03:14:17;;;;;;;0.00;0.00;;;;;;;;;;5028329;28;20281;-69
2022/08/30 03:16:44;;;;;;;0.00;0.00;;;;;;;;;;5022905;28;20279;-68
2022/08/30 03:19:11;;;;;;;0.00;0.00;;;;;;;;;;5024445;28;20275;-70
2022/08/30 03:21:38;;;;;;;0.00;0.00;;;15.80;99.90;;;;;;5023588;28;20204;-68
2022/08/30 03:24:07;;;;;;;0.10;0.10;;;15.70;99.90;;;;;;5022950;28;20219;-67
2022/08/30 03:26:34;;;;;;;0.00;0.00;;;15.70;99.90;;;;;;5028252;28;20200;-68
2022/08/30 03:29:02;;;;;;;0.00;0.00;;;15.70;99.90;;;;;;5026014;28;20227;-67
2022/08/30 03:31:29;;;;;;;0.00;0.00;;;15.60;99.90;;;;;;5013899;28;20193;-66
2022/08/30 03:33:56;;;;;;;0.00;0.00;;;15.70;99.90;;;;;;5019833;28;20199;-67
2022/08/30 03:36:23;;;;;;;0.00;0.00;;;15.70;99.90;;;;;;5020004;28;20287;-68
2022/08/30 03:38:50;;;;;;;0.00;0.00;;;15.70;99.90;;;;;;5026858;28;20200;-67
2022/08/30 03:41:18;;;;;;;0.00;0.00;;;15.60;99.90;;;;;;5022847;28;20291;-67
2022/08/30 03:43:46;;;;;;;0.00;0.00;;;15.60;99.90;;;;;;5027909;28;20205;-68
2022/08/30 03:46:14;;;;;;;0.00;0.00;;;15.70;99.90;;;;;;5016117;28;20207;-67
2022/08/30 03:48:42;;;;;;;0.00;0.00;;;15.70;99.90;;;;;;5021961;28;20200;-67
2022/08/30 03:51:09;;;;;;;0.00;0.00;;;15.80;99.90;;;;;;5028069;28;20199;-67
2022/08/30 03:53:36;;;;;;;0.00;0.00;;;15.80;99.90;;;;;;5023909;28;20207;-68
2022/08/30 03:56:04;;;;;;;0.10;0.10;;;15.80;99.90;;;;;;5027847;28;20219;-68
2022/08/30 03:58:33;;;;;;;0.00;0.00;;;15.80;99.90;;;;;;5027077;28;20200;-68
2022/08/30 04:01:00;;;;;;;0.00;0.00;;;15.80;99.90;;;;;;5027493;28;20200;-68
2022/08/30 04:03:28;;;;;;;0.00;0.00;;;15.80;99.90;;;;;;5023692;28;20200;-70
2022/08/30 04:05:55;;;;;;;0.07;0.07;;;15.80;99.90;;;;;;5025034;28;20224;-71
2022/08/30 04:08:23;;;;;;;0.00;0.00;;;15.80;99.90;;;;;;5031618;28;20211;-72
2022/08/30 04:10:52;;;;;;;0.00;0.00;;;15.80;99.90;;;;;;5071518;22;20276;-70
2022/08/30 04:13:20;;;;;;;0.00;0.00;;;15.80;99.90;;;;;;5063130;28;20249;-72
2022/08/30 04:15:49;;;;;;;0.00;0.00;;;15.80;99.90;;;;;;5053644;28;20222;-73
2022/08/30 04:18:17;;;;;;;0.00;0.00;;;15.80;99.90;;;;;;5052351;28;20265;-74
2022/08/30 04:20:44;;;;;;;0.00;0.00;;;15.80;99.90;;;;;;5053645;28;20191;-73
2022/08/30 04:23:11;;;;;;;0.00;0.00;;;15.80;99.90;;;;;;5057215;22;20209;-74
2022/08/30 04:25:41;;;;;;;0.00;0.00;;;15.80;99.90;;;;;;5006416;28;20228;-74
2022/08/30 04:28:08;;;;;;;0.00;0.00;;;15.80;99.90;;;;;;4993138;28;20679;-74
2022/08/30 04:30:38;;;;;;;0.00;0.00;;;15.80;99.90;;;;;;4987861;28;20213;-74
2022/08/30 04:33:07;;;;;;;0.00;0.00;;;15.80;99.90;;;;;;4982937;28;20218;-75
2022/08/30 04:35:34;;;;;;;0.07;0.07;;;15.90;99.90;;;;;;4992983;28;20224;-74
2022/08/30 04:38:01;;;;;;;0.00;0.00;;;15.90;99.90;;;;;;4995295;28;20297;-74
2022/08/30 04:40:29;;;;;;;0.00;0.00;;;15.90;99.90;;;;;;4994106;28;20223;-73
2022/08/30 04:42:55;;;;;;;0.00;0.00;;;15.90;99.90;;;;;;5005289;28;20200;-73
2022/08/30 04:45:22;;;;;;;0.00;0.00;;;15.90;99.90;;;;;;5001128;28;20231;-72
2022/08/30 04:47:50;;;;;;;0.00;0.00;;;16.00;99.90;;;;;;5007039;28;20204;-75
2022/08/30 04:50:20;;;;;;;0.00;0.00;;;16.00;99.90;;;;;;4995466;28;20216;-73
2022/08/30 04:52:47;;;;;;;0.00;0.00;;;16.00;99.90;;;;;;5011285;28;20211;-73
2022/08/30 04:55:14;;;;;;;0.07;0.07;;;16.00;99.90;;;;;;4994953;28;20221;-74
2022/08/30 04:57:43;;;;;;;0.00;0.00;;;16.10;99.90;;;;;;4994783;28;20243;-74
2022/08/30 05:00:13;;;;;;;0.00;0.00;;;16.10;99.90;;;;;;4991175;28;20204;-75
2022/08/30 05:02:40;;;;;;;0.10;0.10;;;16.20;99.90;;;;;;4988585;28;20209;-73
2022/08/30 05:07:56;;;;;;;0.00;0.00;;;16.30;99.90;;;;;;4994034;28;20203;-73
2022/08/30 05:10:23;;;;;;;0.00;0.00;;;16.30;99.90;;;;;;4994177;28;20224;-74
2022/08/30 05:12:51;;;;;;;0.00;0.00;;;16.30;99.90;;;;;;5004390;28;20212;-74
2022/08/30 05:15:18;;;;;;;0.10;0.10;;;16.40;99.90;;;;;;4993344;28;20280;-75
2022/08/30 05:17:47;;;;;;;0.00;0.00;;;16.40;99.90;;;;;;4992129;28;20245;-75
2022/08/30 05:20:14;;;;;;;0.00;0.00;;;16.40;99.90;;;;;;4991416;28;20250;-74
2022/08/30 05:22:48;;;;;;;0.00;0.00;;;16.40;99.90;;;;;;5008001;28;20197;-76
2022/08/30 05:25:18;;;;;;;0.00;0.00;;;16.40;99.90;;;;;;5008357;28;20238;-72
2022/08/30 05:27:46;;;;;;;0.00;0.00;;;16.50;99.90;;;;;;4995358;28;20208;-72
2022/08/30 05:30:14;;;;;;;0.10;0.10;;;16.50;99.90;;;;;;4986336;28;20208;-71
2022/08/30 05:32:41;;;;;;;0.00;0.00;;;16.60;99.90;;;;;;4997709;28;20240;-71
2022/08/30 05:35:11;;;;;;;0.00;0.00;;;16.60;99.90;;;;;;4991992;28;20244;-71
2022/08/30 05:37:38;;;;;;;0.00;0.00;;;16.60;99.90;;;;;;4986133;28;20252;-70
2022/08/30 05:40:07;;;;;;;0.00;0.00;;;16.70;99.90;;;;;;4993446;28;20201;-71
2022/08/30 05:42:37;;;;;;;0.00;0.00;;;16.70;99.90;;;;;;4984155;28;20223;-71
2022/08/30 05:45:05;;;;;;;0.00;0.00;;;16.70;99.90;;;;;;5004814;28;20228;-72
2022/08/30 05:47:33;;;;;;;0.00;0.00;;;16.70;99.90;;;;;;4987286;28;20211;-71
2022/08/30 05:49:59;;;;;;;0.00;0.00;;;16.80;99.90;;;;;;4989303;28;20216;-71
2022/08/30 05:52:26;;;;;;;0.00;0.00;;;16.80;99.90;;;;;;4994821;28;20311;-70
2022/08/30 05:54:57;;;;;;;0.00;0.00;;;16.90;99.90;;;;;;4991400;28;20652;-71
2022/08/30 05:57:25;;;;;;;0.00;0.00;;;16.90;99.90;;;;;;4985584;28;20196;-72
2022/08/30 05:59:53;;;;;;;0.00;0.00;;;16.90;99.90;;;;;;4994335;28;20203;-71
2022/08/30 06:02:20;;;;;;;0.00;0.00;;;17.00;99.90;;;;;;5001289;28;20206;-73
2022/08/30 06:04:47;;;;;;;0.00;0.00;;;17.00;99.90;;;;;;5002060;28;20310;-72
2022/08/30 06:07:14;;;;;;;0.00;0.00;;;17.00;99.90;;;;;;5005037;28;20259;-72
2022/08/30 06:09:41;;;;;;;0.00;0.00;;;17.00;99.90;;;;;;4995109;28;20226;-71
2022/08/30 06:12:08;;;;;;;0.00;0.00;;;17.00;99.90;;;;;;4993258;28;20208;-72
2022/08/30 06:14:35;;;;;;;0.00;0.00;;;17.10;99.90;;;;;;5002190;28;20272;-72
2022/08/30 06:17:04;;;;;;;0.00;0.00;;;17.10;99.90;;;;;;5001046;28;20296;-71
2022/08/30 06:19:30;;;;;;;0.07;0.07;;;17.10;99.90;;;;;;5015176;28;20744;-72
2022/08/30 06:21:57;;;;;;;0.00;0.00;;;17.20;99.90;;;;;;4990916;28;20238;-72
2022/08/30 06:24:24;;;;;;;0.00;0.00;;;17.20;99.90;;;;;;4989481;28;20252;-71
2022/08/30 06:26:51;;;;;;;0.00;0.00;;;17.20;99.90;;;;;;4995446;28;20200;-73
2022/08/30 06:29:20;;;;;;;0.00;0.00;;;17.30;99.90;;;;;;4991213;28;20299;-71
2022/08/30 06:31:47;;;;;;;0.00;0.00;;;17.30;99.90;;;;;;4991471;28;20217;-72
2022/08/30 06:34:16;;;;;;;0.00;0.00;;;17.30;99.90;;;;;;4997296;28;20331;-72
2022/08/30 06:36:43;;;;;;;0.00;0.00;;;17.40;99.90;;;;;;5003952;28;20201;-72
2022/08/30 06:39:10;;;;;;;0.00;0.00;;;17.40;99.90;;;;;;4980149;28;20268;-72
2022/08/30 06:41:39;;;;;;;0.00;0.00;;;17.50;99.90;;;;;;4998987;28;20197;-72
2022/08/30 06:44:17;;;;;;;0.00;0.00;;;17.50;99.90;;;;;;4983537;28;20224;-73
2022/08/30 06:46:44;;;;;;;0.00;0.00;;;17.60;99.90;;;;;;5000672;28;20206;-71
2022/08/30 06:49:11;;;;;;;0.00;0.00;;;17.60;99.90;;;;;;4980728;28;20670;-71
2022/08/30 06:51:40;;;;;;;0.00;0.00;;;17.70;99.90;;;;;;4989280;28;20224;-71
2022/08/30 06:54:08;;;;;;;0.00;0.00;;;17.80;99.90;;;;;;4983578;28;20227;-72
2022/08/30 06:56:34;;;;;;;0.10;0.10;;;17.80;99.90;;;;;;4984581;28;20324;-72
2022/08/30 06:59:01;;;;;;;0.00;0.00;;;17.90;99.90;;;;;;4982978;28;20201;-72
2022/08/30 07:01:29;;;;;;;0.00;0.00;;;17.90;99.90;;;;;;4984250;28;20197;-71
2022/08/30 07:03:57;;;;;;;0.00;0.00;;;17.90;99.90;;;;;;4996414;28;20303;-71
2022/08/30 07:06:25;;;;;;;0.00;0.00;;;18.00;99.90;;;;;;4989517;28;20288;-71
2022/08/30 07:08:53;;;;;;;0.00;0.00;;;18.10;99.90;;;;;;4988906;28;20288;-72
2022/08/30 07:11:35;;;;;;;0.00;0.00;;;18.10;99.90;;;;;;4995999;28;20220;-71
2022/08/30 07:14:03;;;;;;;0.00;0.00;;;18.10;99.90;;;;;;4987687;28;20270;-71
2022/08/30 07:16:30;;;;;;;0.00;0.00;;;18.20;99.90;;;;;;4997390;28;20201;-72
2022/08/30 07:18:57;;;;;;;0.00;0.00;;;18.20;99.90;;;;;;5014305;28;20295;-71
2022/08/30 07:21:27;;;;;;;0.00;0.00;;;18.20;99.90;;;;;;4994589;28;20200;-71
2022/08/30 07:23:57;;;;;;;0.00;0.00;;;18.30;99.90;;;;;;4994437;28;20247;-72
2022/08/30 07:26:27;;;;;;;0.00;0.00;;;18.30;99.90;;;;;;5014643;28;20192;-71
2022/08/30 07:28:54;;;;;;;0.00;0.00;;;18.30;99.90;;;;;;4993479;28;20216;-72
2022/08/30 07:31:21;;;;;;;0.00;0.00;;;18.30;99.90;;;;;;4987957;28;20220;-72
2022/08/30 07:33:49;;;;;;;0.00;0.00;;;18.30;99.90;;;;;;4997345;28;20252;-72
2022/08/30 07:36:17;;;;;;;0.00;0.00;;;18.30;99.90;;;;;;5010822;28;20201;-70
2022/08/30 07:38:44;;;;;;;0.00;0.00;;;18.30;99.90;;;;;;5000021;28;20292;-71
2022/08/30 07:41:19;;;;;;;0.00;0.00;;;18.30;99.90;;;;;;4999072;28;20200;-71
2022/08/30 07:43:45;;;;;;;0.00;0.00;;;18.40;99.90;;;;;;4988680;28;20205;-72
2022/08/30 07:46:12;;;;;;;0.00;0.00;;;18.40;99.90;;;;;;4998771;28;20290;-71
2022/08/30 07:48:39;;;;;;;0.00;0.00;;;18.50;99.90;;;;;;4995961;28;20203;-72
2022/08/30 07:51:09;;;;;;;0.00;0.00;;;18.50;99.90;;;;;;5011219;28;20231;-71
2022/08/30 07:53:36;;;;;;;0.00;0.00;;;18.60;99.90;;;;;;4990960;28;20300;-72
2022/08/30 07:56:03;;;;;;;0.00;0.00;;;18.50;99.90;;;;;;5013003;28;20200;-72
2022/08/30 07:58:32;;;;;;;0.00;0.00;;;18.50;99.90;;;;;;4996782;28;20209;-71
2022/08/30 08:00:59;;;;;;;0.00;0.00;;;18.50;99.90;;;;;;4994546;28;20204;-71
2022/08/30 08:03:26;;;;;;;0.00;0.00;;;18.50;99.90;;;;;;5001104;28;20223;-72
2022/08/30 08:05:53;;;;;;;0.00;0.00;;;18.50;99.90;;;;;;5004392;28;20199;-72
2022/08/30 08:08:22;;;;;;;0.00;0.00;;;18.50;99.90;;;;;;4999713;28;20251;-72
2022/08/30 08:10:49;;;;;;;0.00;0.00;;;18.50;99.90;;;;;;4998368;28;20348;-71
2022/08/30 08:13:16;;;;;;;0.00;0.00;;;18.50;99.90;;;;;;5003472;28;20208;-71
2022/08/30 08:15:45;;;;;;;0.00;0.00;;;18.50;99.90;;;;;;4993757;28;20224;-71
2022/08/30 08:18:12;;;;;;;0.00;0.00;;;18.50;99.90;;;;;;5000322;28;20205;-71
2022/08/30 08:20:42;;;;;;;0.00;0.00;;;18.60;99.90;;;;;;5012435;28;20193;-72
2022/08/30 08:23:09;;;;;;;0.00;0.00;;;18.60;99.90;;;;;;4995343;28;20218;-72
2022/08/30 08:25:40;;;;;;;0.00;0.00;;;18.70;99.90;;;;;;4997321;28;20232;-71
2022/08/30 08:28:08;;;;;;;0.00;0.00;;;18.80;99.90;;;;;;4997025;28;20200;-71
2022/08/30 08:30:36;;;;;;;0.00;0.00;;;18.80;99.90;;;;;;4987557;28;20629;-71
2022/08/30 08:33:05;;;;;;;0.00;0.00;;;18.90;99.90;;;;;;5005604;28;20295;-72
2022/08/30 08:35:32;;;;;;;0.00;0.00;;;18.80;99.90;;;;;;4994938;28;20220;-72
2022/08/30 08:38:01;;;;;;;0.00;0.00;;;18.90;99.90;;;;;;4993256;28;20208;-72
2022/08/30 08:40:30;;;;;;;0.00;0.00;;;18.90;99.90;;;;;;4987843;28;20208;-72
2022/08/30 08:43:05;;;;;;;0.00;0.00;;;19.00;99.90;;;;;;4998045;28;20608;-71
2022/08/30 08:45:50;;;;;;;0.00;0.00;;;19.00;99.90;;;;;;5011589;28;20316;-72
2022/08/30 08:48:29;;;;;;;0.00;0.00;;;19.10;99.90;;;;;;5009082;28;20235;-71
2022/08/30 08:53:43;;;;;;;0.00;0.00;;;19.20;99.90;;;;;;4998119;28;20200;-72
2022/08/30 08:56:13;;;;;;;0.00;0.00;;;19.20;99.90;;;;;;4991846;28;20205;-72
2022/08/30 08:58:44;;;;;;;0.00;0.00;;;19.30;99.90;;;;;;4993762;28;20218;-72
2022/08/30 09:01:12;;;;;;;0.00;0.00;;;19.40;99.90;;;;;;4999579;28;20263;-72
2022/08/30 09:03:41;;;;;;;0.00;0.00;;;;;;;;;;4996192;28;20200;-71
2022/08/30 09:06:16;;;;;;;0.00;0.00;;;;;;;;;;4993934;28;20208;-72
2022/08/30 09:08:43;;;;;;;0.00;0.00;;;;;;;;;;5010487;28;20282;-72
2022/08/30 09:11:22;;;;;;;0.00;0.00;;;;;;;;;;5001319;28;20217;-71
2022/08/30 09:13:49;;;;;;;0.00;0.00;;;;;;;;;;5009175;28;20220;-72
2022/08/30 09:16:31;;;;;;;0.00;0.00;;;;;;;;;;5007672;28;20196;-72
2022/08/30 09:18:59;;;;;;;0.00;0.00;;;;;;;;;;4992365;28;20200;-72
2022/08/30 09:21:28;;;;;;;0.00;0.00;;;;;;;;;;4991272;28;20276;-71
2022/08/30 09:23:57;;;;;;;0.00;0.00;;;;;;;;;;4987758;28;20327;-71
2022/08/30 09:26:29;;;;;;;0.00;0.00;;;;;;;;;;4993720;28;20212;-71
2022/08/30 09:28:59;;;;;;;0.00;0.00;;;;;;;;;;4989542;28;20212;-71
2022/08/30 09:31:27;;;;;;;0.00;0.00;;;;;;;;;;4986574;28;20267;-71
2022/08/30 09:33:55;;;;;;;0.00;0.00;;;;;;;;;;4990514;28;20229;-72
2022/08/30 09:36:26;;;;;;;0.00;0.00;;;;;;;;;;4990304;28;20208;-71
2022/08/30 09:39:00;;;;;;;0.00;0.00;;;19.60;99.90;;;;;;5008175;28;20204;-70
2022/08/30 09:41:30;;;;;;;0.00;0.00;;;;;;;;;;4992564;28;20206;-72
2022/08/30 09:44:07;;;;;;;0.00;0.00;;;21.20;99.90;;;;;;4992704;28;20228;-70
2022/08/30 09:46:42;;;;;;;0.00;0.00;;;21.50;99.90;;;;;;4990929;28;20210;-71
2022/08/30 09:49:32;;;;;;;0.00;0.00;;;21.70;99.90;;;;;;4998095;28;20211;-71
2022/08/30 09:52:17;;;;;;;0.00;0.00;;;21.90;99.90;;;;;;4997940;28;20225;-72
2022/08/30 09:54:54;;;;;;;0.00;0.00;;;22.10;99.90;;;;;;4995240;28;20212;-70
2022/08/30 09:57:31;;;;;;;0.00;0.00;;;22.40;99.90;;;;;;4997373;28;20211;-71
2022/08/30 10:00:03;;;;;;;0.00;0.00;;;22.60;99.90;;;;;;5016605;28;20228;-72
2022/08/30 10:02:46;;;;;;;0.00;0.00;;;22.80;99.90;;;;;;5011186;28;20255;-71
2022/08/30 10:05:21;;;;;;;0.00;0.00;;;23.00;99.90;;;;;;4999853;28;20231;-71
2022/08/30 10:08:02;;;;;;;0.00;0.00;;;23.20;99.90;;;;;;4998365;28;20208;-71
2022/08/30 10:10:36;;;;;;;0.00;0.00;;;23.30;99.90;;;;;;4993565;28;20204;-71
2022/08/30 10:13:22;;;;;;;0.00;0.00;;;23.30;99.90;;;;;;4995746;28;20251;-72
2022/08/30 10:15:56;;;;;;;0.00;0.00;;;23.20;99.90;;;;;;5004143;28;20227;-72
2022/08/30 10:18:34;;;;;;;0.00;0.00;;;23.00;99.90;;;;;;4994479;28;20205;-71
2022/08/30 10:21:07;;;;;;;0.00;0.00;;;23.00;99.90;;;;;;4986423;28;20215;-71
2022/08/30 10:23:40;;;;;;;0.00;0.00;;;23.00;99.90;;;;;;5001552;28;20232;-72
2022/08/30 10:26:13;;;;;;;0.00;0.00;;;23.10;99.90;;;;;;4994884;28;20302;-73
2022/08/30 10:28:44;;;;;;;0.00;0.00;;;23.30;99.90;;;;;;4993580;28;20201;-71
2022/08/30 10:31:13;;;;;;;0.00;0.00;;;;;;;;;;4975992;28;20225;-72
2022/08/30 10:33:44;;;;;;;0.00;0.00;;;23.50;99.90;;;;;;4987642;28;20296;-72
2022/08/30 10:36:12;;;;;;;0.00;0.00;;;;;;;;;;4987149;28;20216;-72
2022/08/30 10:38:43;;;;;;;0.00;0.00;;;;;;;;;;4987991;28;20205;-72
2022/08/30 10:41:13;;;;;;;0.00;0.00;;;;;;;;;;4991751;28;20312;-71
2022/08/30 10:43:46;;;;;;;0.00;0.00;;;;;;;;;;4997088;28;20670;-70
2022/08/30 10:46:18;;;;;;;0.00;0.00;;;;;;;;;;4996434;28;20316;-71
2022/08/30 10:48:46;;;;;;;0.00;0.00;;;;;;;;;;4992754;28;20212;-72
2022/08/30 10:51:17;;;;;;;0.00;0.00;;;;;;;;;;4987909;28;20219;-71
2022/08/30 10:53:48;;;;;;;0.00;0.00;;;;;;;;;;5008757;28;20280;-71
2022/08/30 10:56:19;;;;;;;0.00;0.00;;;;;;;;;;4991562;28;20204;-71
2022/08/30 10:58:46;;;;;;;0.00;0.00;;;;;;;;;;5000216;28;20228;-71
2022/08/30 11:01:20;;;;;;;0.00;0.00;;;;;;;;;;4996322;28;20200;-71
2022/08/30 11:04:05;;;;;;;0.00;0.00;;;;;;;;;;4990019;28;20204;-70
2022/08/30 11:06:38;;;;;;;0.00;0.00;;;;;;;;;;4989097;28;20200;-71
2022/08/30 11:09:22;;;;;;;0.00;0.00;;;;;;;;;;5011332;28;20206;-71
2022/08/30 11:12:02;;;;;;;0.00;0.00;;;;;;;;;;4997982;28;20319;-70
2022/08/30 11:14:30;;;;;;;0.00;0.00;;;;;;;;;;4995065;28;20212;-71
2022/08/30 11:16:59;;;;;;;0.00;0.00;;;;;;;;;;5001269;28;20681;-71
2022/08/30 11:19:28;;;;;;;0.00;0.00;;;;;;;;;;4998118;28;20192;-71
2022/08/30 11:22:11;;;;;;;0.00;0.00;;;;;;;;;;4991521;28;20201;-71
2022/08/30 11:24:53;;;;;;;0.00;0.00;;;;;;;;;;4994825;28;20229;-71
2022/08/30 11:27:35;;;;;;;0.00;0.00;;;;;;;;;;4993674;28;20201;-70
2022/08/30 11:30:17;;;;;;;0.00;0.00;;;;;;;;;;4992904;28;20208;-71
2022/08/30 11:32:59;;;;;;;0.00;0.00;;;;;;;;;;5000752;28;20221;-71
2022/08/30 11:35:44;;;;;;;0.00;0.00;;;;;;;;;;4990935;28;20220;-71
2022/08/30 11:38:16;;;;;;;0.00;0.00;;;;;;;;;;4996096;28;20300;-71
2022/08/30 11:40:48;;;;;;;0.00;0.00;;;;;;;;;;4988022;28;20208;-71
2022/08/30 11:43:39;;;;;;;0.00;0.00;;;;;;;;;;4999849;28;20243;-72
2022/08/30 11:46:19;;;;;;;0.00;0.00;;;;;;;;;;4983266;28;20214;-72
2022/08/30 11:48:53;;;;;;;0.00;0.00;;;;;;;;;;5000705;28;20204;-72
2022/08/30 11:51:36;;;;;;;0.00;0.00;;;;;;;;;;4996993;28;20287;-71
2022/08/30 11:54:08;;;;;;;0.00;0.00;;;;;;;;;;4993130;28;20233;-71
2022/08/30 11:56:43;;;;;;;0.00;0.00;;;;;;;;;;5002872;28;20251;-72
2022/08/30 11:59:19;;;;;;;0.00;0.00;;;;;;;;;;5002318;28;20204;-72
2022/08/30 12:01:47;;;;;;;0.00;0.00;;;;;;;;;;5020000;28;20196;-71
2022/08/30 12:04:30;;;;;;;0.00;0.00;;;;;;;;;;4999176;28;20225;-72
2022/08/30 12:07:03;;;;;;;0.00;0.00;;;;;;;;;;5000661;28;20292;-71
2022/08/30 12:10:04;;;;;;;0.00;0.00;;;;;;;;;;5001755;28;20197;-71
2022/08/30 12:12:51;;;;;;;0.00;0.00;;;;;;;;;;5001383;28;20278;-70
2022/08/30 12:15:49;;;;;;;0.00;0.00;;;;;;;;;;4998672;28;20264;-71
2022/08/30 12:18:29;;;;;;;0.00;0.00;;;;;;;;;;4999779;28;20213;-71
2022/08/30 12:20:59;;;;;;;0.00;0.00;;;;;;;;;;5000938;28;20199;-70
2022/08/30 12:23:33;;;;;;;0.00;0.00;;;;;;;;;;4994123;28;20235;-71
2022/08/30 12:26:16;;;;;;;0.00;0.00;;;;;;;;;;5012777;28;20203;-71
2022/08/30 12:28:47;;;;;;;0.00;0.00;;;;;;;;;;4995796;28;20197;-70
2022/08/30 12:31:16;;;;;;;0.00;0.00;;;;;;;;;;4987137;28;20224;-71
2022/08/30 12:33:45;;;;;;;0.00;0.00;;;;;;;;;;4997763;28;20304;-71
2022/08/30 12:36:13;;;;;;;0.00;0.00;;;;;;;;;;4999144;28;20228;-71
2022/08/30 12:38:42;;;;;;;0.00;0.00;;;;;;;;;;5011054;28;20224;-71
2022/08/30 12:41:17;;;;;;;0.00;0.00;;;;;;;;;;4999462;28;20205;-72
2022/08/30 12:43:49;;;;;;;0.00;0.00;;;;;;;;;;5001299;28;20231;-70
2022/08/30 12:46:17;;;;;;;0.00;0.00;;;;;;;;;;4998903;28;20204;-72
2022/08/30 12:48:48;;;;;;;0.00;0.00;;;;;;;;;;5006945;28;20209;-72
2022/08/30 12:51:30;;;;;;;0.00;0.00;;;;;;;;;;5000411;28;20211;-72
2022/08/30 12:54:08;;;;;;;0.00;0.00;;;;;;;;;;5005109;28;20237;-72
2022/08/30 12:56:54;;;;;;;0.00;0.00;;;;;;;;;;4988668;28;20207;-72
2022/08/30 12:59:40;;;;;;;0.00;0.00;;;;;;;;;;4998894;28;20296;-71
2022/08/30 13:02:12;;;;;;;0.00;0.00;;;;;;;;;;5004207;28;20204;-72
2022/08/30 13:04:40;;;;;;;0.00;0.00;;;;;;;;;;5009719;28;20240;-71
2022/08/30 13:07:09;;;;;;;0.00;0.00;;;;;;;;;;4990092;28;20291;-72
2022/08/30 13:09:43;;;;;;;0.00;0.00;;;;;;;;;;4996769;28;20256;-72
2022/08/30 13:12:11;;;;;;;0.00;0.00;;;;;;;;;;5001028;28;20266;-72
2022/08/30 13:14:40;;;;;;;0.00;0.00;;;;;;;;;;5010952;28;20244;-72
2022/08/30 13:17:09;;;;;;;0.00;0.00;;;;;;;;;;5004737;28;20757;-71
2022/08/30 13:19:38;;;;;;;0.00;0.00;;;;;;;;;;4992382;28;20208;-72
2022/08/30 13:22:06;;;;;;;0.00;0.00;;;;;;;;;;4996357;28;20209;-73
2022/08/30 13:24:34;;;;;;;0.00;0.00;;;;;;;;;;4996714;28;20235;-72
2022/08/30 13:27:08;;;;;;;0.00;0.00;;;;;;;;;;4992812;28;20196;-72
2022/08/30 13:29:36;;;;;;;0.00;0.00;;;;;;;;;;4988199;28;20209;-73
2022/08/30 13:32:03;;;;;;;0.00;0.00;;;;;;;;;;5003451;28;20192;-72
2022/08/30 13:34:34;;;;;;;0.00;0.00;;;;;;;;;;4990399;28;20216;-71
2022/08/30 13:37:02;;;;;;;0.00;0.00;;;;;;;;;;4993651;28;20748;-70
2022/08/30 13:39:30;;;;;;;0.00;0.00;;;;;;;;;;4999478;28;20220;-71
2022/08/30 13:41:58;;;;;;;0.00;0.00;;;;;;;;;;5006154;28;20269;-72
2022/08/30 13:44:27;;;;;;;0.00;0.00;;;;;;;;;;5014286;28;20260;-72